createdAt,value
2023-03-16T00:03:50.215Z,20.77
2023-03-16T00:08:51.587Z,20.92
2023-03-16T00:13:52.955Z,20.98
2023-03-16T00:18:54.351Z,21.06
2023-03-16T00:23:55.812Z,20.93
2023-03-16T00:28:57.284Z,21.00
2023-03-16T00:33:58.683Z,21.12
2023-03-16T00:39:00.121Z,21.19
2023-03-16T00:44:01.539Z,20.87
2023-03-16T00:49:03.121Z,20.96
2023-03-16T00:54:05.466Z,20.95
2023-03-16T00:59:08.726Z,20.98
2023-03-16T01:04:10.805Z,20.74
2023-03-16T01:09:12.356Z,20.91
2023-03-16T01:14:13.747Z,20.74
2023-03-16T01:19:15.384Z,20.91
2023-03-16T01:24:16.762Z,20.91
2023-03-16T01:29:18.151Z,20.81
2023-03-16T01:34:19.545Z,20.61
2023-03-16T01:39:20.949Z,20.84
2023-03-16T01:44:30.277Z,20.88
2023-03-16T01:49:36.510Z,20.72
2023-03-16T01:55:02.671Z,20.66
2023-03-16T02:00:19.311Z,20.81
2023-03-16T02:05:26.814Z,20.90
2023-03-16T02:10:28.514Z,20.81
2023-03-16T02:15:30.065Z,20.70
2023-03-16T02:21:05.867Z,20.72
2023-03-16T02:26:28.902Z,20.53
2023-03-16T02:31:30.338Z,20.79
2023-03-16T02:36:31.816Z,20.67
2023-03-16T02:41:33.196Z,20.58
2023-03-16T02:46:35.623Z,20.76
2023-03-16T02:51:37.103Z,20.67
2023-03-16T02:56:39.067Z,20.71
2023-03-16T03:01:40.470Z,20.85
2023-03-16T03:06:41.915Z,20.58
2023-03-16T03:11:43.327Z,20.48
2023-03-16T03:16:46.522Z,20.37
2023-03-16T03:21:48.212Z,20.82
2023-03-16T03:26:49.582Z,20.55
2023-03-16T03:31:51.005Z,20.55
2023-03-16T03:36:53.639Z,20.45
2023-03-16T03:41:55.016Z,20.66
2023-03-16T03:46:56.442Z,20.42
2023-03-16T03:51:59.105Z,20.49
2023-03-16T03:57:00.543Z,20.31
2023-03-16T04:02:02.004Z,20.32
2023-03-16T04:07:03.835Z,20.20
2023-03-16T04:12:05.682Z,20.40
2023-03-16T04:17:07.327Z,20.26
2023-03-16T04:22:08.763Z,20.34
2023-03-16T04:27:11.937Z,20.38
2023-03-16T04:32:13.368Z,20.07
2023-03-16T04:37:14.747Z,20.18
2023-03-16T04:42:16.130Z,20.44
2023-03-16T04:47:17.566Z,20.34
2023-03-16T04:52:18.985Z,20.16
2023-03-16T04:57:20.416Z,19.96
2023-03-16T05:02:21.788Z,20.38
2023-03-16T05:07:23.182Z,20.31
2023-03-16T05:12:24.640Z,20.18
2023-03-16T05:17:26.040Z,20.14
2023-03-16T05:22:27.422Z,20.13
2023-03-16T05:27:28.811Z,20.33
2023-03-16T05:32:31.074Z,20.06
2023-03-16T05:37:32.728Z,20.25
2023-03-16T05:42:34.646Z,20.18
2023-03-16T05:47:37.329Z,19.85
2023-03-16T05:52:38.963Z,19.96
2023-03-16T05:57:41.319Z,19.98
2023-03-16T06:02:43.215Z,20.17
2023-03-16T06:07:44.797Z,20.14
2023-03-16T06:12:47.420Z,20.00
2023-03-16T06:17:48.905Z,20.02
2023-03-16T06:22:50.333Z,20.33
2023-03-16T06:27:51.737Z,20.25
2023-03-16T06:32:53.228Z,20.17
2023-03-16T06:37:54.627Z,20.07
2023-03-16T06:42:55.997Z,20.09
2023-03-16T06:47:57.434Z,20.26
2023-03-16T06:52:58.830Z,19.76
2023-03-16T06:58:00.238Z,20.18
2023-03-16T07:03:01.908Z,20.07
2023-03-16T07:08:04.737Z,20.34
2023-03-16T07:13:06.167Z,20.30
2023-03-16T07:18:07.616Z,20.19
2023-03-16T07:23:08.991Z,20.25
2023-03-16T07:28:11.523Z,20.40
2023-03-16T07:33:12.989Z,20.67
2023-03-16T07:38:14.466Z,20.21
2023-03-16T07:43:15.955Z,20.20
2023-03-16T07:48:17.566Z,20.02
2023-03-16T07:53:18.956Z,20.16
2023-03-16T07:58:20.374Z,20.13
2023-03-16T08:03:22.513Z,20.02
2023-03-16T08:08:23.974Z,19.81
2023-03-16T08:13:27.035Z,19.88
2023-03-16T08:18:29.771Z,19.78
2023-03-16T08:23:33.410Z,19.89
2023-03-16T08:28:35.968Z,20.21
2023-03-16T08:33:37.397Z,20.20
2023-03-16T08:38:39.962Z,20.03
2023-03-16T08:43:42.215Z,20.47
2023-03-16T08:48:43.630Z,20.13
2023-03-16T08:53:45.212Z,20.01
2023-03-16T08:58:47.135Z,19.86
2023-03-16T09:03:48.586Z,20.02
2023-03-16T09:08:50.569Z,20.07
2023-03-16T09:13:53.121Z,20.27
2023-03-16T09:18:55.809Z,20.13
2023-03-16T09:23:57.211Z,20.41
2023-03-16T09:28:58.653Z,20.59
2023-03-16T09:34:00.088Z,20.02
2023-03-16T09:39:03.099Z,20.21
2023-03-16T09:44:29.094Z,19.92
2023-03-16T09:49:36.687Z,19.90
2023-03-16T09:54:49.296Z,19.74
2023-03-16T09:59:50.711Z,19.75
2023-03-16T10:05:12.342Z,19.48
2023-03-16T10:10:14.404Z,19.49
2023-03-16T10:15:29.581Z,19.45
2023-03-16T10:20:33.013Z,19.49
2023-03-16T10:25:56.097Z,19.41
2023-03-16T10:30:58.994Z,19.28
2023-03-16T10:36:05.523Z,19.16
2023-03-16T10:41:22.592Z,19.00
2023-03-16T10:46:25.700Z,19.10
2023-03-16T10:51:36.718Z,19.36
2023-03-16T10:56:38.257Z,19.38
2023-03-16T11:01:39.772Z,19.15
2023-03-16T11:06:56.427Z,18.97
2023-03-16T11:11:57.912Z,18.75
2023-03-16T11:17:05.614Z,18.71
2023-03-16T11:22:25.076Z,18.70
2023-03-16T11:27:54.024Z,17.90
2023-03-16T11:32:55.684Z,17.94
2023-03-16T11:38:13.904Z,18.22
2023-03-16T11:43:35.026Z,17.91
2023-03-16T11:49:07.531Z,18.03
2023-03-16T11:54:30.683Z,17.96
2023-03-16T11:59:55.373Z,18.11
2023-03-16T12:05:09.428Z,17.28
2023-03-16T12:10:38.957Z,17.73
2023-03-16T12:15:44.874Z,17.66
2023-03-16T12:20:57.638Z,17.54
2023-03-16T12:26:03.337Z,17.57
2023-03-16T12:31:12.288Z,17.49
2023-03-16T12:36:19.520Z,17.54
2023-03-16T12:41:30.051Z,17.28
2023-03-16T12:46:59.476Z,17.41
2023-03-16T12:52:05.239Z,17.58
2023-03-16T12:57:07.123Z,17.41
2023-03-16T13:02:22.070Z,17.16
2023-03-16T13:07:24.392Z,16.85
2023-03-16T13:12:36.692Z,17.04
2023-03-16T13:17:39.231Z,16.67
2023-03-16T13:22:53.050Z,16.35
2023-03-16T13:27:55.759Z,16.39
2023-03-16T13:33:19.530Z,16.24
2023-03-16T13:38:22.573Z,16.11
2023-03-16T13:43:28.781Z,16.34
2023-03-16T13:48:30.182Z,16.28
2023-03-16T13:53:32.800Z,16.64
2023-03-16T13:58:37.717Z,16.44
2023-03-16T14:03:39.651Z,16.31
2023-03-16T14:08:41.069Z,16.23
2023-03-16T14:13:42.693Z,16.20
2023-03-16T14:18:48.520Z,16.06
2023-03-16T14:23:55.026Z,16.03
2023-03-16T14:29:06.198Z,16.35
2023-03-16T14:34:21.200Z,17.11
2023-03-16T14:39:22.685Z,17.10
2023-03-16T14:44:30.645Z,16.92
2023-03-16T14:49:38.398Z,16.86
2023-03-16T14:54:39.788Z,17.01
2023-03-16T14:59:41.405Z,17.19
2023-03-16T15:04:43.319Z,17.33
2023-03-16T15:09:45.872Z,17.62
2023-03-16T15:15:05.726Z,17.66
2023-03-16T15:20:07.497Z,17.58
2023-03-16T15:25:24.109Z,17.84
2023-03-16T15:30:26.797Z,18.13
2023-03-16T15:35:28.276Z,18.48
2023-03-16T15:40:30.094Z,18.51
2023-03-16T15:45:31.822Z,18.47
2023-03-16T15:50:33.192Z,18.73
2023-03-16T15:55:41.951Z,18.76
2023-03-16T16:00:43.387Z,18.56
2023-03-16T16:05:44.809Z,18.52
2023-03-16T16:10:46.636Z,18.56
2023-03-16T16:15:48.798Z,18.56
2023-03-16T16:20:51.168Z,18.57
2023-03-16T16:25:56.575Z,18.57
2023-03-16T16:30:58.375Z,18.71
2023-03-16T16:36:01.851Z,19.07
2023-03-16T16:41:06.680Z,19.03
2023-03-16T16:46:14.047Z,19.13
2023-03-16T16:51:23.317Z,19.32
2023-03-16T16:56:32.379Z,19.12
2023-03-16T17:01:34.824Z,19.21
2023-03-16T17:06:36.286Z,19.13
2023-03-16T17:11:37.697Z,19.35
2023-03-16T17:16:39.186Z,19.30
2023-03-16T17:21:41.904Z,19.33
2023-03-16T17:26:45.142Z,19.69
2023-03-16T17:31:46.571Z,19.49
2023-03-16T17:36:47.947Z,19.48
2023-03-16T17:41:52.004Z,19.63
2023-03-16T17:46:54.275Z,19.54
2023-03-16T17:51:55.749Z,19.50
2023-03-16T17:56:57.472Z,19.55
2023-03-16T18:01:58.898Z,19.41
2023-03-16T18:07:00.315Z,19.54
2023-03-16T18:12:01.926Z,19.50
2023-03-16T18:17:07.585Z,19.35
2023-03-16T18:22:27.737Z,19.43
2023-03-16T18:27:29.129Z,19.43
2023-03-16T18:32:30.548Z,19.64
2023-03-16T18:37:32.445Z,19.42
2023-03-16T18:42:33.944Z,19.39
2023-03-16T18:47:35.701Z,19.66
2023-03-16T18:52:37.778Z,19.42
2023-03-16T18:57:39.862Z,19.46
2023-03-16T19:02:41.520Z,19.55
2023-03-16T19:07:44.409Z,19.37
2023-03-16T19:12:45.842Z,19.50
2023-03-16T19:17:47.636Z,19.67
2023-03-16T19:22:49.587Z,19.54
2023-03-16T19:27:51.136Z,19.67
2023-03-16T19:32:52.769Z,19.45
2023-03-16T19:37:54.171Z,19.74
2023-03-16T19:42:55.556Z,19.66
2023-03-16T19:47:56.923Z,19.68
2023-03-16T19:52:58.490Z,19.84
2023-03-16T19:58:01.797Z,19.90
2023-03-16T20:03:03.194Z,19.86
2023-03-16T20:08:13.161Z,19.80
2023-03-16T20:13:14.554Z,19.69
2023-03-16T20:18:16.224Z,19.76
2023-03-16T20:23:22.916Z,19.72
2023-03-16T20:28:27.229Z,20.03
2023-03-16T20:33:28.711Z,19.80
2023-03-16T20:38:30.157Z,19.69
2023-03-16T20:43:31.946Z,19.74
2023-03-16T20:48:34.020Z,19.98
2023-03-16T20:53:35.818Z,19.95
2023-03-16T20:58:37.884Z,19.67
2023-03-16T21:03:39.378Z,19.74
2023-03-16T21:08:40.766Z,19.60
2023-03-16T21:13:42.254Z,19.81
2023-03-16T21:18:43.633Z,19.77
2023-03-16T21:23:45.037Z,19.54
2023-03-16T21:28:55.531Z,19.72
2023-03-16T21:33:56.981Z,19.52
2023-03-16T21:38:58.529Z,19.52
2023-03-16T21:43:59.914Z,19.56
2023-03-16T21:49:03.676Z,19.40
2023-03-16T21:54:07.882Z,19.28
2023-03-16T21:59:10.640Z,19.27
2023-03-16T22:04:15.402Z,19.49
2023-03-16T22:09:18.498Z,19.25
2023-03-16T22:14:20.088Z,19.27
2023-03-16T22:19:22.102Z,19.30
2023-03-16T22:24:24.930Z,19.15
2023-03-16T22:29:28.158Z,19.19
2023-03-16T22:34:48.645Z,19.13
2023-03-16T22:39:50.197Z,18.92
2023-03-16T22:44:51.631Z,18.99
2023-03-16T22:49:53.604Z,19.12
2023-03-16T22:54:54.998Z,19.04
2023-03-16T22:59:56.388Z,18.97
2023-03-16T23:04:57.813Z,19.03
2023-03-16T23:09:59.234Z,18.96
2023-03-16T23:15:00.979Z,18.90
2023-03-16T23:20:04.080Z,18.89
2023-03-16T23:25:05.957Z,18.84
2023-03-16T23:30:23.979Z,18.60
2023-03-16T23:35:27.321Z,18.71
2023-03-16T23:40:29.149Z,18.67
2023-03-16T23:45:33.701Z,18.59
2023-03-16T23:50:35.645Z,18.55
2023-03-16T23:55:37.151Z,18.48
